TAF and METAR

METAR for Heidrun

ENHE 011650Z 26023KT 9999 -SHRA FEW016 BKN020 04/01 Q0985 W///S5
Report created 1. apr 18:50
wind 23 knots from W (260°) visibility > 10km light rain showers some clouds (~25% cover) at 1600 feet broken clouds (~75% cover) at 2000 feet Temperature 4° with dewpoint at 1° (Humidity 80.78%) Pressure 985 hPa

TAF for Heidrun

TAF ENHE 011400Z 0115/0124 26025KT 9999 -SHRA SCT010 BKN020 TEMPO 0115/0124 4000 SHRA BR BKN008 SCT015CB BECMG 0119/0121 27042KT
Report created 1. apr 16:00

between 1. apr 17:00 - 1. apr 02:00

wind 25 knots from W (260°) visibility > 10km light rain showers scattered clouds (~50% cover) at 1000 feet broken clouds (~75% cover) at 2000 feet

temporarily between 1. apr 17:00 - 1. apr 02:00

visibility 4000 meters rain showers mist broken clouds (~75% cover) at 800 feet scattered clouds (~50% cover) at 1500 feet of type cumulonimbus

becoming between 1. apr 21:00 - 1. apr 23:00

wind 42 knots from W (270°)